Time,TemperatureF,DewpointF,PressureIn,WindDirection,WindDirectionDegrees,WindSpeedMPH,WindSpeedGustMPH,Humidity,HourlyPrecipIn,Conditions,Clouds,dailyrainin,SolarRadiationWatts/m^2,SoftwareType,DateUTC
2013-05-03 00:22:00,64.0,64.0,-100.00,SSW,203,4.0,7.0,100,0.00,,,0.00,0.000000,,2013-05-03 10:22:00,
2013-05-03 00:32:00,64.0,64.0,-100.00,SSW,203,4.0,7.0,100,0.00,,,0.00,0.000000,,2013-05-03 10:32:00,
2013-05-03 00:42:00,64.0,64.0,-100.00,SSW,203,4.0,7.0,100,0.00,,,0.00,0.000000,,2013-05-03 10:42:00,
2013-05-03 00:52:00,64.0,64.0,-100.00,SSW,203,4.0,7.0,100,0.00,,,0.00,0.000000,,2013-05-03 10:52:00,
2013-05-03 01:22:00,63.0,63.0,-100.00,SW,227,6.0,8.0,100,0.00,,,0.00,0.000000,,2013-05-03 11:22:00,
2013-05-03 01:31:00,63.0,63.0,-100.00,SW,227,6.0,8.0,100,0.00,,,0.00,0.000000,,2013-05-03 11:31:00,
2013-05-03 01:42:00,63.0,63.0,-100.00,SW,227,6.0,8.0,100,0.00,,,0.00,0.000000,,2013-05-03 11:42:00,
2013-05-03 01:51:00,63.0,63.0,-100.00,SW,227,6.0,8.0,100,0.00,,,0.00,0.000000,,2013-05-03 11:51:00,
2013-05-03 02:21:00,62.0,62.0,-100.00,SW,223,4.0,7.0,100,0.00,,,-99.99,0.000000,,2013-05-03 12:21:00,
2013-05-03 02:32:00,62.0,62.0,-100.00,SW,223,4.0,7.0,100,0.00,,,-99.99,0.000000,,2013-05-03 12:32:00,
2013-05-03 02:41:00,62.0,62.0,-100.00,SW,223,4.0,7.0,100,0.00,,,-99.99,0.000000,,2013-05-03 12:41:00,
2013-05-03 02:51:00,62.0,62.0,-100.00,SW,223,4.0,7.0,100,0.00,,,-99.99,0.000000,,2013-05-03 12:51:00,
2013-05-03 03:22:00,61.0,61.0,-100.00,WSW,242,5.0,7.0,100,0.00,,,0.00,0.000000,,2013-05-03 13:22:00,
2013-05-03 03:32:00,61.0,61.0,-100.00,WSW,242,5.0,7.0,100,0.00,,,0.00,0.000000,,2013-05-03 13:32:00,
2013-05-03 03:42:00,61.0,61.0,-100.00,WSW,242,5.0,7.0,100,0.00,,,0.00,0.000000,,2013-05-03 13:42:00,
2013-05-03 03:52:00,61.0,61.0,-100.00,WSW,242,5.0,7.0,100,0.00,,,0.00,0.000000,,2013-05-03 13:52:00,
2013-05-03 04:21:00,64.0,64.0,-100.00,WSW,245,5.0,9.0,100,0.00,,,0.00,0.000000,,2013-05-03 14:21:00,
2013-05-03 04:32:00,64.0,64.0,-100.00,WSW,245,5.0,9.0,100,0.00,,,0.00,0.000000,,2013-05-03 14:32:00,
2013-05-03 04:42:00,64.0,64.0,-100.00,WSW,245,5.0,9.0,100,0.00,,,0.00,0.000000,,2013-05-03 14:42:00,
2013-05-03 04:52:00,64.0,64.0,-100.00,WSW,245,5.0,9.0,100,0.00,,,0.00,0.000000,,2013-05-03 14:52:00,
2013-05-03 05:22:00,64.0,64.0,-100.00,NW,312,2.0,8.0,100,0.00,,,0.00,0.000000,,2013-05-03 15:22:00,
2013-05-03 05:32:00,64.0,64.0,-100.00,NW,312,2.0,8.0,100,0.00,,,0.00,0.000000,,2013-05-03 15:32:00,
2013-05-03 05:43:00,64.0,64.0,-100.00,NW,312,2.0,8.0,100,0.00,,,0.00,0.000000,,2013-05-03 15:43:00,
2013-05-03 05:53:00,64.0,64.0,-100.00,NW,312,2.0,8.0,100,0.00,,,0.00,0.000000,,2013-05-03 15:53:00,
2013-05-03 06:22:00,61.0,61.0,-100.00,SW,217,4.0,9.0,100,0.00,,,0.00,0.000000,,2013-05-03 16:22:00,
2013-05-03 06:32:00,61.0,61.0,-100.00,SW,217,4.0,9.0,100,0.00,,,0.00,0.000000,,2013-05-03 16:32:00,
2013-05-03 06:42:00,61.0,61.0,-100.00,SW,217,4.0,9.0,100,0.00,,,0.00,0.000000,,2013-05-03 16:42:00,
2013-05-03 06:52:00,61.0,61.0,-100.00,SW,217,4.0,9.0,100,0.00,,,0.00,0.000000,,2013-05-03 16:52:00,
2013-05-03 07:23:00,69.0,69.0,-100.00,SW,217,4.0,7.0,100,0.00,,,0.00,34.000000,,2013-05-03 17:23:00,
2013-05-03 07:32:00,69.0,69.0,-100.00,SW,217,4.0,7.0,100,0.00,,,0.00,34.000000,,2013-05-03 17:32:00,
2013-05-03 07:42:00,69.0,69.0,-100.00,SW,217,4.0,7.0,100,0.00,,,0.00,34.000000,,2013-05-03 17:42:00,
2013-05-03 07:51:00,69.0,69.0,-100.00,SW,217,4.0,7.0,100,0.00,,,0.00,34.000000,,2013-05-03 17:51:00,
2013-05-03 08:21:00,75.0,69.0,-100.00,ESE,117,3.0,6.0,83,0.00,,,-99.99,101.000000,,2013-05-03 18:21:00,
2013-05-03 08:31:00,75.0,69.0,-100.00,ESE,117,3.0,6.0,83,0.00,,,-99.99,101.000000,,2013-05-03 18:31:00,
2013-05-03 08:42:00,75.0,69.0,-100.00,ESE,117,3.0,6.0,83,0.00,,,-99.99,101.000000,,2013-05-03 18:42:00,
2013-05-03 08:51:00,75.0,69.0,-100.00,ESE,117,3.0,6.0,83,0.00,,,-99.99,101.000000,,2013-05-03 18:51:00,
2013-05-03 09:21:00,79.0,70.0,-100.00,ENE,73,5.0,12.0,75,0.00,,,0.00,126.000000,,2013-05-03 19:21:00,
2013-05-03 09:32:00,79.0,70.0,-100.00,ENE,73,5.0,12.0,75,0.00,,,0.00,126.000000,,2013-05-03 19:32:00,
2013-05-03 09:41:00,79.0,70.0,-100.00,ENE,73,5.0,12.0,75,0.00,,,0.00,126.000000,,2013-05-03 19:41:00,
2013-05-03 09:52:00,79.0,70.0,-100.00,ENE,73,5.0,12.0,75,0.00,,,0.00,126.000000,,2013-05-03 19:52:00,
2013-05-03 10:21:00,79.0,67.0,-100.00,NNE,20,5.0,12.0,66,0.00,,,0.00,193.000000,,2013-05-03 20:21:00,
2013-05-03 10:31:00,79.0,67.0,-100.00,NNE,20,5.0,12.0,66,0.00,,,0.00,193.000000,,2013-05-03 20:31:00,
2013-05-03 10:41:00,79.0,67.0,-100.00,NNE,20,5.0,12.0,66,0.00,,,0.00,193.000000,,2013-05-03 20:41:00,
2013-05-03 10:52:00,79.0,67.0,-100.00,NNE,20,5.0,12.0,66,0.00,,,0.00,193.000000,,2013-05-03 20:52:00,
2013-05-03 11:21:00,85.0,70.0,-100.00,SW,236,3.0,12.0,61,0.00,,,0.00,259.000000,,2013-05-03 21:21:00,
2013-05-03 11:33:00,85.0,70.0,-100.00,SW,236,3.0,12.0,61,0.00,,,0.00,259.000000,,2013-05-03 21:33:00,
2013-05-03 11:42:00,85.0,70.0,-100.00,SW,236,3.0,12.0,61,0.00,,,0.00,259.000000,,2013-05-03 21:42:00,
2013-05-03 11:52:00,85.0,70.0,-100.00,SW,236,3.0,12.0,61,0.00,,,0.00,259.000000,,2013-05-03 21:52:00,
2013-05-03 12:22:00,81.0,66.0,-100.00,SSE,167,6.0,16.0,60,0.00,,,0.00,295.000000,,2013-05-03 22:22:00,
2013-05-03 12:32:00,81.0,66.0,-100.00,SSE,167,6.0,16.0,60,0.00,,,0.00,295.000000,,2013-05-03 22:32:00,
2013-05-03 12:42:00,81.0,66.0,-100.00,SSE,167,6.0,16.0,60,0.00,,,0.00,295.000000,,2013-05-03 22:42:00,
2013-05-03 12:52:00,81.0,66.0,-100.00,SSE,167,6.0,16.0,60,0.00,,,0.00,295.000000,,2013-05-03 22:52:00,
2013-05-03 14:22:00,76.0,70.0,-100.00,SW,214,7.0,16.0,82,-99.99,,,0.00,188.000000,,2013-05-04 00:22:00,
2013-05-03 14:31:00,76.0,70.0,-100.00,SW,214,7.0,16.0,82,-99.99,,,0.00,188.000000,,2013-05-04 00:31:00,
2013-05-03 14:41:00,76.0,70.0,-100.00,SW,214,7.0,16.0,82,-99.99,,,0.00,188.000000,,2013-05-04 00:41:00,
2013-05-03 14:52:00,76.0,70.0,-100.00,SW,214,7.0,16.0,82,-99.99,,,0.00,188.000000,,2013-05-04 00:52:00,
2013-05-03 15:21:00,79.0,70.0,-100.00,South,177,8.0,15.0,75,0.00,,,0.00,301.000000,,2013-05-04 01:21:00,
2013-05-03 15:31:00,79.0,70.0,-100.00,South,177,8.0,15.0,75,0.00,,,0.00,301.000000,,2013-05-04 01:31:00,
2013-05-03 15:41:00,79.0,70.0,-100.00,South,177,8.0,15.0,75,0.00,,,0.00,301.000000,,2013-05-04 01:41:00,
2013-05-03 15:52:00,79.0,70.0,-100.00,South,177,8.0,15.0,75,0.00,,,0.00,301.000000,,2013-05-04 01:52:00,
2013-05-03 16:21:00,74.0,70.0,-100.00,ENE,58,7.0,15.0,87,0.00,,,0.00,107.000000,,2013-05-04 02:21:00,
2013-05-03 16:32:00,74.0,70.0,-100.00,ENE,58,7.0,15.0,87,0.00,,,0.00,107.000000,,2013-05-04 02:32:00,
2013-05-03 16:41:00,74.0,70.0,-100.00,ENE,58,7.0,15.0,87,0.00,,,0.00,107.000000,,2013-05-04 02:41:00,
2013-05-03 16:52:00,74.0,70.0,-100.00,ENE,58,7.0,15.0,87,0.00,,,0.00,107.000000,,2013-05-04 02:52:00,
2013-05-03 17:21:00,74.0,70.0,-100.00,ESE,116,5.0,11.0,88,0.00,,,0.00,85.000000,,2013-05-04 03:21:00,
2013-05-03 17:32:00,74.0,70.0,-100.00,ESE,116,5.0,11.0,88,0.00,,,0.00,85.000000,,2013-05-04 03:32:00,
2013-05-03 17:43:00,74.0,70.0,-100.00,ESE,116,5.0,11.0,88,0.00,,,0.00,85.000000,,2013-05-04 03:43:00,
2013-05-03 17:52:00,74.0,70.0,-100.00,ESE,116,5.0,11.0,88,0.00,,,0.00,85.000000,,2013-05-04 03:52:00,
2013-05-03 18:22:00,74.0,70.0,-100.00,SE,126,4.0,11.0,88,0.00,,,0.00,115.000000,,2013-05-04 04:22:00,
2013-05-03 18:32:00,74.0,70.0,-100.00,SE,126,4.0,11.0,88,0.00,,,0.00,115.000000,,2013-05-04 04:32:00,
2013-05-03 18:42:00,74.0,70.0,-100.00,SE,126,4.0,11.0,88,0.00,,,0.00,115.000000,,2013-05-04 04:42:00,
2013-05-03 18:52:00,74.0,70.0,-100.00,SE,126,4.0,11.0,88,0.00,,,0.00,115.000000,,2013-05-04 04:52:00,
2013-05-03 19:22:00,73.0,70.0,-100.00,SSW,208,3.0,7.0,91,0.00,,,0.00,40.000000,,2013-05-04 05:22:00,
2013-05-03 19:32:00,73.0,70.0,-100.00,SSW,208,3.0,7.0,91,0.00,,,0.00,40.000000,,2013-05-04 05:32:00,
2013-05-03 19:42:00,73.0,70.0,-100.00,SSW,208,3.0,7.0,91,0.00,,,0.00,40.000000,,2013-05-04 05:42:00,
2013-05-03 19:52:00,73.0,70.0,-100.00,SSW,208,3.0,7.0,91,0.00,,,0.00,40.000000,,2013-05-04 05:52:00,
2013-05-03 20:21:00,68.0,68.0,-100.00,SW,218,3.0,7.0,100,0.00,,,0.00,0.000000,,2013-05-04 06:21:00,
2013-05-03 20:32:00,68.0,68.0,-100.00,SW,218,3.0,7.0,100,0.00,,,0.00,0.000000,,2013-05-04 06:32:00,
2013-05-03 20:41:00,68.0,68.0,-100.00,SW,218,3.0,7.0,100,0.00,,,0.00,0.000000,,2013-05-04 06:41:00,
2013-05-03 20:52:00,68.0,68.0,-100.00,SW,218,3.0,7.0,100,0.00,,,0.00,0.000000,,2013-05-04 06:52:00,
2013-05-03 21:21:00,67.0,67.0,-100.00,WSW,242,4.0,5.0,100,0.00,,,0.00,0.000000,,2013-05-04 07:21:00,
2013-05-03 21:32:00,67.0,67.0,-100.00,WSW,242,4.0,5.0,100,0.00,,,0.00,0.000000,,2013-05-04 07:32:00,
2013-05-03 21:41:00,67.0,67.0,-100.00,WSW,242,4.0,5.0,100,0.00,,,0.00,0.000000,,2013-05-04 07:41:00,
2013-05-03 21:52:00,67.0,67.0,-100.00,WSW,242,4.0,5.0,100,0.00,,,0.00,0.000000,,2013-05-04 07:52:00,
2013-05-03 22:21:00,65.0,65.0,-100.00,SW,230,3.0,5.0,100,0.00,,,0.00,0.000000,,2013-05-04 08:21:00,
2013-05-03 22:31:00,65.0,65.0,-100.00,SW,230,3.0,5.0,100,0.00,,,0.00,0.000000,,2013-05-04 08:31:00,
2013-05-03 22:41:00,65.0,65.0,-100.00,SW,230,3.0,5.0,100,0.00,,,0.00,0.000000,,2013-05-04 08:41:00,
2013-05-03 22:52:00,65.0,65.0,-100.00,SW,230,3.0,5.0,100,0.00,,,0.00,0.000000,,2013-05-04 08:52:00,
2013-05-03 23:21:00,65.0,65.0,-100.00,SSW,205,3.0,5.0,100,0.00,,,0.00,0.000000,,2013-05-04 09:21:00,
2013-05-03 23:32:00,65.0,65.0,-100.00,SSW,205,3.0,5.0,100,0.00,,,0.00,0.000000,,2013-05-04 09:32:00,
2013-05-03 23:42:00,65.0,65.0,-100.00,SSW,205,3.0,5.0,100,0.00,,,0.00,0.000000,,2013-05-04 09:42:00,
2013-05-03 23:52:00,65.0,65.0,-100.00,SSW,205,3.0,5.0,100,0.00,,,0.00,0.000000,,2013-05-04 09:52:00,